Time;durP1;ratioP1;P1;durP2;ratioP2;P2;SDS_P1;SDS_P2;PMS_P1;PMS_P2;Temp;Humidity;BMP_temperature;BMP_pressure;BME280_temperature;BME280_humidity;BME280_pressure;Samples;Min_cycle;Max_cycle;Signal;HPM_P1;HPM_P2
2022/03/23 00:02:26;;;;;;;11.60;7.57;;;;;;;7.07;54.13;100764.88;5072517;28;20233;-59
2022/03/23 00:04:53;;;;;;;14.87;8.40;;;;;;;7.01;53.72;100755.25;5072236;28;20577;-59
2022/03/23 00:07:22;;;;;;;13.83;7.70;;;;;;;6.93;54.45;100751.41;5072187;28;20252;-59
2022/03/23 00:09:49;;;;;;;10.33;6.60;;;;;;;6.74;54.61;100743.63;5072259;28;20201;-59
2022/03/23 00:12:16;;;;;;;12.90;7.47;;;;;;;6.72;55.26;100752.91;5072241;28;20281;-59
2022/03/23 00:14:43;;;;;;;13.50;7.17;;;;;;;6.56;54.51;100752.03;5072032;28;20195;-59
2022/03/23 00:17:10;;;;;;;10.10;7.00;;;;;;;6.48;54.70;100749.94;5071953;28;20664;-59
2022/03/23 00:19:37;;;;;;;14.10;7.27;;;;;;;6.40;55.34;100751.19;5072096;28;20641;-58
2022/03/23 00:22:04;;;;;;;11.77;7.17;;;;;;;6.36;55.90;100756.97;5071255;28;20708;-59
2022/03/23 00:24:32;;;;;;;10.50;6.93;;;;;;;6.37;56.26;100752.72;5071927;28;20198;-58
2022/03/23 00:26:59;;;;;;;16.10;7.50;;;;;;;6.42;56.16;100753.84;5071849;28;20630;-58
2022/03/23 00:29:26;;;;;;;18.73;7.67;;;;;;;6.36;56.32;100766.28;5071597;28;20202;-58
2022/03/23 00:31:53;;;;;;;13.03;7.83;;;;;;;6.25;56.26;100778.47;5071624;28;20279;-59
2022/03/23 00:34:20;;;;;;;14.77;7.60;;;;;;;6.26;56.48;100767.44;5071840;28;20204;-59
2022/03/23 00:36:47;;;;;;;14.73;7.97;;;;;;;6.13;56.62;100756.50;5071623;28;20286;-59
2022/03/23 00:39:14;;;;;;;12.97;7.90;;;;;;;6.02;57.11;100757.59;5071666;28;20229;-59
2022/03/23 00:41:42;;;;;;;14.57;7.63;;;;;;;5.99;57.28;100755.75;5071804;28;20219;-59
2022/03/23 00:44:10;;;;;;;16.27;8.27;;;;;;;5.96;56.97;100760.69;5069792;28;20281;-59
2022/03/23 00:46:37;;;;;;;10.30;8.03;;;;;;;5.92;56.69;100744.38;5051467;28;20200;-59
2022/03/23 00:49:04;;;;;;;12.60;7.90;;;;;;;5.87;56.82;100752.56;5051643;28;20306;-59
2022/03/23 00:51:31;;;;;;;13.40;7.57;;;;;;;5.78;56.66;100749.47;5051365;28;20189;-59
2022/03/23 00:53:58;;;;;;;12.70;7.40;;;;;;;5.75;56.69;100741.66;5051387;28;20199;-59
2022/03/23 00:56:24;;;;;;;16.87;8.13;;;;;;;5.74;56.58;100745.84;5051355;28;20201;-59
2022/03/23 00:58:53;;;;;;;11.47;7.77;;;;;;;5.75;56.02;100739.97;5051185;28;20635;-59
2022/03/23 01:01:20;;;;;;;14.07;8.60;;;;;;;5.62;56.91;100740.09;5058824;28;20228;-59
2022/03/23 01:03:47;;;;;;;12.10;8.03;;;;;;;5.61;56.81;100737.44;5070302;28;20199;-59
2022/03/23 01:06:15;;;;;;;16.70;8.60;;;;;;;5.60;56.33;100736.59;5070112;28;20205;-59
2022/03/23 01:08:42;;;;;;;13.20;7.40;;;;;;;5.53;57.15;100738.69;5070774;28;20274;-59
2022/03/23 01:11:10;;;;;;;15.83;8.40;;;;;;;5.47;57.13;100736.69;5070919;28;20561;-59
2022/03/23 01:13:37;;;;;;;10.77;7.10;;;;;;;5.52;56.63;100735.25;5069743;28;20203;-59
2022/03/23 01:16:06;;;;;;;15.13;8.82;;;;;;;5.35;56.33;100705.44;5065189;28;20451;-59
2022/03/23 01:18:33;;;;;;;12.40;8.07;;;;;;;5.43;56.05;100713.50;5060413;28;20199;-59
2022/03/23 01:21:01;;;;;;;13.43;8.23;;;;;;;5.58;56.27;100739.81;5070706;28;20227;-60
2022/03/23 01:23:28;;;;;;;14.83;6.97;;;;;;;5.51;56.17;100735.19;5071053;28;20193;-59
2022/03/23 01:25:55;;;;;;;14.33;8.30;;;;;;;5.50;56.15;100741.97;5070616;28;20197;-59
2022/03/23 01:28:22;;;;;;;14.97;9.00;;;;;;;5.49;56.32;100734.22;5069541;28;20277;-59
2022/03/23 01:30:49;;;;;;;13.23;7.87;;;;;;;5.46;56.98;100731.50;5075546;28;20188;-59
2022/03/23 01:33:17;;;;;;;17.17;9.50;;;;;;;5.49;56.10;100729.13;5080412;28;20196;-59
2022/03/23 01:35:44;;;;;;;17.80;9.67;;;;;;;5.48;56.80;100737.56;5079294;28;20199;-59
2022/03/23 01:38:11;;;;;;;16.17;10.10;;;;;;;5.44;57.77;100735.66;5079479;28;20735;-59
2022/03/23 01:40:38;;;;;;;20.27;10.03;;;;;;;5.43;57.26;100731.34;5080036;28;20193;-59
2022/03/23 01:43:05;;;;;;;22.03;12.57;;;;;;;5.41;58.31;100738.03;5079450;28;20661;-59
2022/03/23 01:45:33;;;;;;;23.90;12.77;;;;;;;5.35;58.35;100733.47;5076535;28;20219;-59
2022/03/23 01:47:59;;;;;;;15.97;11.50;;;;;;;5.41;58.01;100733.81;5080323;28;20176;-59
2022/03/23 01:50:28;;;;;;;22.93;11.73;;;;;;;5.42;58.15;100738.09;5081555;28;20184;-59
2022/03/23 01:52:56;;;;;;;16.17;11.07;;;;;;;5.42;58.18;100737.22;5069944;28;20192;-57
2022/03/23 01:55:23;;;;;;;20.23;10.43;;;;;;;5.37;57.85;100734.41;5070376;28;20698;-57
2022/03/23 01:57:52;;;;;;;22.10;11.83;;;;;;;5.44;58.45;100743.31;5070577;28;20203;-58
2022/03/23 02:00:21;;;;;;;16.57;11.07;;;;;;;5.41;57.86;100744.00;5070250;28;20224;-58
2022/03/23 02:02:48;;;;;;;14.43;10.10;;;;;;;5.45;58.10;100748.47;5070281;28;20295;-58
2022/03/23 02:05:15;;;;;;;17.27;10.73;;;;;;;5.49;58.36;100749.53;5070644;28;20347;-58
2022/03/23 02:07:44;;;;;;;23.27;12.60;;;;;;;5.50;58.35;100746.16;5069555;28;20445;-58
2022/03/23 02:10:11;;;;;;;20.30;11.03;;;;;;;5.62;57.84;100749.41;5070328;28;20193;-57
2022/03/23 02:12:38;;;;;;;22.60;11.77;;;;;;;5.38;57.83;100701.38;5070281;28;20673;-58
2022/03/23 02:15:13;;;;;;;17.60;11.03;;;;;;;5.59;58.02;100745.03;5073508;28;20188;-57
2022/03/23 02:17:40;;;;;;;21.13;10.33;;;;;;;5.53;57.39;100741.25;5077003;28;20256;-58
2022/03/23 02:20:08;;;;;;;17.03;10.27;;;;;;;5.52;58.43;100749.69;5077017;28;20637;-58
2022/03/23 02:22:36;;;;;;;13.47;9.80;;;;;;;5.48;57.59;100741.00;5076939;28;20216;-58
2022/03/23 02:25:04;;;;;;;22.63;11.07;;;;;;;5.40;58.69;100738.81;5076774;28;20667;-58
2022/03/23 02:27:32;;;;;;;18.43;9.50;;;;;;;5.42;57.85;100735.56;5076522;28;20196;-58
2022/03/23 02:30:00;;;;;;;17.37;8.57;;;;;;;5.44;58.67;100740.75;5076709;28;20292;-58
2022/03/23 02:32:26;;;;;;;15.07;8.97;;;;;;;5.48;58.09;100746.09;5076650;28;20200;-58
2022/03/23 02:34:54;;;;;;;16.00;8.27;;;;;;;5.45;58.99;100740.81;5076878;28;20198;-58
2022/03/23 02:37:21;;;;;;;14.63;8.23;;;;;;;5.51;58.49;100746.28;5076781;28;20317;-58
2022/03/23 02:39:49;;;;;;;16.58;9.88;;;;;;;5.50;58.65;100744.50;5075783;28;20459;-58
2022/03/23 02:42:16;;;;;;;15.60;8.63;;;;;;;5.49;58.70;100750.41;5076530;28;20219;-58
2022/03/23 02:44:43;;;;;;;16.03;8.20;;;;;;;5.53;59.21;100751.44;5076492;28;20284;-58
2022/03/23 02:47:10;;;;;;;13.77;8.97;;;;;;;5.50;59.40;100743.63;5076745;28;20272;-58
2022/03/23 02:49:39;;;;;;;15.48;9.15;;;;;;;5.61;59.55;100745.09;5075716;28;20438;-58
2022/03/23 02:52:06;;;;;;;14.03;7.80;;;;;;;5.63;58.83;100738.44;5076572;28;20197;-58
2022/03/23 03:03:47;;;;;;;11.87;7.60;;;;;;;5.61;58.63;100748.53;5076423;28;20194;-58
2022/03/23 03:06:14;;;;;;;17.83;7.77;;;;;;;5.61;58.90;100745.09;5076369;28;20249;-58
2022/03/23 03:08:47;;;;;;;17.07;8.60;;;;;;;5.64;57.83;100751.25;5076473;28;20550;-58
2022/03/23 03:11:15;;;;;;;14.73;8.33;;;;;;;5.64;58.32;100755.47;5076258;28;20188;-58
2022/03/23 03:13:45;;;;;;;14.57;8.33;;;;;;;5.60;58.77;100738.25;5076388;28;20515;-59
2022/03/23 03:16:12;;;;;;;10.47;7.33;;;;;;;5.68;57.14;100732.81;5076233;28;20283;-57
2022/03/23 03:18:39;;;;;;;17.00;8.07;;;;;;;5.65;57.14;100737.72;5076405;28;20563;-57
2022/03/23 03:21:07;;;;;;;15.93;8.27;;;;;;;5.64;57.52;100737.63;5076158;28;20562;-58
2022/03/23 03:23:34;;;;;;;21.17;7.77;;;;;;;5.63;57.47;100733.34;5059274;28;20288;-58
2022/03/23 03:26:05;;;;;;;13.07;8.30;;;;;;;5.68;56.70;100734.47;5054258;28;20704;-57
2022/03/23 03:28:32;;;;;;;12.80;8.37;;;;;;;5.68;57.78;100725.16;5053107;28;20198;-57
2022/03/23 03:31:01;;;;;;;13.90;8.77;;;;;;;5.62;56.08;100701.88;5052721;28;20505;-57
2022/03/23 03:33:28;;;;;;;10.37;6.10;;;;;;;5.80;53.75;100730.91;5052972;28;20280;-57
2022/03/23 03:35:55;;;;;;;11.67;6.40;;;;;;;5.89;52.20;100726.34;5052790;28;20563;-57
2022/03/23 03:38:21;;;;;;;12.97;6.83;;;;;;;6.04;50.67;100721.19;5052808;28;20203;-57
2022/03/23 03:40:48;;;;;;;12.47;7.73;;;;;;;6.11;51.27;100720.72;5052783;28;20300;-58
2022/03/23 03:43:16;;;;;;;16.37;9.07;;;;;;;6.19;51.02;100722.00;5052914;28;20576;-58
2022/03/23 03:45:45;;;;;;;17.53;9.50;;;;;;;6.28;51.07;100713.97;5052831;28;20250;-58
2022/03/23 03:48:13;;;;;;;12.43;8.60;;;;;;;6.34;50.56;100716.84;5052765;28;20196;-58
2022/03/23 03:50:41;;;;;;;12.97;8.10;;;;;;;6.34;51.51;100717.72;5062474;28;20217;-58
2022/03/23 03:53:09;;;;;;;15.10;8.30;;;;;;;6.29;50.80;100706.38;5072475;28;20190;-59
2022/03/23 03:55:36;;;;;;;14.13;7.37;;;;;;;6.29;51.38;100711.47;5072467;28;20187;-58
2022/03/23 03:58:03;;;;;;;13.93;9.20;;;;;;;6.08;52.29;100681.41;5056516;28;20209;-58
2022/03/23 04:00:31;;;;;;;15.63;9.57;;;;;;;6.09;53.39;100717.22;5052308;28;20653;-58
2022/03/23 04:02:58;;;;;;;18.30;9.23;;;;;;;5.94;54.35;100719.81;5052453;28;20214;-58
2022/03/23 04:05:28;;;;;;;12.53;8.73;;;;;;;5.84;54.77;100716.66;5072238;28;20194;-59
2022/03/23 04:07:55;;;;;;;14.20;7.83;;;;;;;5.66;55.05;100724.16;5072462;28;20196;-59
2022/03/23 04:10:22;;;;;;;14.53;8.63;;;;;;;5.64;55.06;100718.09;5072210;28;20657;-59
2022/03/23 04:12:49;;;;;;;10.80;6.80;;;;;;;5.52;55.86;100729.31;5072037;28;20192;-58
2022/03/23 04:15:16;;;;;;;13.37;6.73;;;;;;;5.46;55.47;100727.31;5072133;28;20193;-58
2022/03/23 04:17:43;;;;;;;13.73;7.50;;;;;;;5.40;56.61;100728.63;5072069;28;20193;-58
2022/03/23 04:20:11;;;;;;;14.77;7.23;;;;;;;5.29;56.98;100728.00;5071959;28;20633;-58
2022/03/23 04:22:39;;;;;;;13.97;7.90;;;;;;;5.23;57.21;100742.94;5071772;28;20217;-58
2022/03/23 04:25:08;;;;;;;14.87;7.93;;;;;;;5.12;57.85;100734.69;5071878;28;20189;-57
2022/03/23 04:27:35;;;;;;;16.23;8.67;;;;;;;5.05;58.01;100740.25;5071792;28;20193;-58
2022/03/23 04:30:02;;;;;;;19.33;8.90;;;;;;;5.02;58.47;100745.16;5071628;28;20286;-58
2022/03/23 04:32:29;;;;;;;12.50;7.40;;;;;;;5.00;58.72;100740.75;5071841;28;20198;-58
2022/03/23 04:34:56;;;;;;;12.70;8.13;;;;;;;5.00;58.29;100740.75;5072028;28;20197;-58
2022/03/23 04:37:23;;;;;;;13.17;7.27;;;;;;;5.02;58.43;100742.59;5071692;28;20655;-58
2022/03/23 04:39:51;;;;;;;14.88;8.93;;;;;;;4.99;58.40;100742.44;5071559;28;20464;-58
2022/03/23 04:42:18;;;;;;;13.20;8.73;;;;;;;4.99;58.79;100741.53;5071732;28;20215;-58
2022/03/23 04:44:45;;;;;;;15.73;8.50;;;;;;;4.96;58.70;100742.25;5071522;28;20187;-58
2022/03/23 04:47:12;;;;;;;15.03;8.80;;;;;;;4.89;58.72;100742.66;5071497;28;20193;-58
2022/03/23 04:49:40;;;;;;;15.07;9.53;;;;;;;4.89;59.26;100746.91;5071782;28;20215;-58
2022/03/23 04:52:07;;;;;;;16.73;10.27;;;;;;;4.96;59.15;100733.72;5070763;28;20441;-58
2022/03/23 04:54:34;;;;;;;15.97;9.37;;;;;;;5.05;58.96;100735.16;5071188;28;20439;-58
2022/03/23 04:57:03;;;;;;;15.47;8.80;;;;;;;5.05;58.50;100744.44;5070782;28;20196;-59
2022/03/23 04:59:30;;;;;;;19.63;9.87;;;;;;;4.94;57.95;100746.38;5070438;28;20398;-59
2022/03/23 05:01:57;;;;;;;18.40;10.00;;;;;;;4.90;58.26;100746.97;5075291;28;20206;-58
2022/03/23 05:04:24;;;;;;;14.17;9.50;;;;;;;4.89;57.73;100741.81;5076252;28;20279;-58
2022/03/23 05:06:51;;;;;;;11.97;10.07;;;;;;;4.87;58.00;100746.78;5072049;28;20191;-58
2022/03/23 05:09:18;;;;;;;16.80;9.33;;;;;;;4.83;56.86;100744.88;5076971;28;20207;-58
2022/03/23 05:11:45;;;;;;;12.13;8.50;;;;;;;4.82;57.38;100753.28;5080962;28;20283;-57
2022/03/23 05:14:13;;;;;;;15.13;10.30;;;;;;;4.82;56.89;100760.91;5080753;28;20192;-59
2022/03/23 05:16:40;;;;;;;14.50;10.50;;;;;;;4.81;57.31;100750.66;5079588;28;20977;-59
2022/03/23 05:19:07;;;;;;;12.70;10.10;;;;;;;4.90;56.98;100748.63;5080545;28;20192;-59
2022/03/23 05:21:34;;;;;;;14.77;9.30;;;;;;;4.93;56.37;100752.25;5079646;28;20219;-58
2022/03/23 05:24:01;;;;;;;13.27;8.70;;;;;;;4.98;56.20;100752.50;5081610;28;20220;-59
2022/03/23 05:26:28;;;;;;;15.57;9.30;;;;;;;5.03;56.08;100751.97;5079284;28;20191;-58
2022/03/23 05:28:55;;;;;;;14.67;9.67;;;;;;;5.06;55.49;100749.63;5070244;28;21100;-58
2022/03/23 05:31:23;;;;;;;13.30;9.60;;;;;;;5.08;55.48;100755.66;5070207;28;20304;-58
2022/03/23 05:33:50;;;;;;;11.40;9.13;;;;;;;5.06;55.69;100747.06;5069582;28;20196;-58
2022/03/23 05:36:20;;;;;;;14.57;9.17;;;;;;;5.21;55.10;100754.72;5069963;28;20647;-57
2022/03/23 05:38:47;;;;;;;12.20;10.20;;;;;;;5.32;54.79;100764.75;5070155;28;20178;-58
2022/03/23 05:41:14;;;;;;;16.23;10.33;;;;;;;5.42;54.65;100768.69;5069485;28;20193;-57
2022/03/23 05:43:41;;;;;;;16.27;10.20;;;;;;;5.50;53.82;100758.91;5069038;28;20256;-58
2022/03/23 05:46:08;;;;;;;11.60;8.90;;;;;;;5.65;53.87;100763.22;5049965;28;20200;-58
2022/03/23 05:48:36;;;;;;;11.93;8.50;;;;;;;5.78;53.09;100758.00;5050083;28;20204;-57
2022/03/23 05:51:04;;;;;;;16.67;9.43;;;;;;;5.90;52.73;100760.38;5049934;28;20196;-58
2022/03/23 05:53:31;;;;;;;19.77;9.97;;;;;;;6.03;52.64;100765.34;5050104;28;20211;-58
2022/03/23 05:55:58;;;;;;;16.77;9.23;;;;;;;6.10;52.36;100758.94;5050125;28;20253;-57
2022/03/23 05:58:24;;;;;;;15.47;9.33;;;;;;;6.23;52.08;100764.75;5050109;28;20284;-58
2022/03/23 06:00:51;;;;;;;11.80;8.60;;;;;;;6.13;51.34;100726.78;5050018;28;20229;-58
2022/03/23 06:03:18;;;;;;;13.50;10.03;;;;;;;6.42;51.35;100761.50;5050304;28;20650;-58
2022/03/23 06:05:47;;;;;;;14.77;9.93;;;;;;;6.54;50.99;100763.00;5049961;28;20609;-58
2022/03/23 06:08:14;;;;;;;12.90;9.53;;;;;;;6.62;51.02;100773.63;5049876;28;20200;-57
2022/03/23 06:10:41;;;;;;;18.88;11.95;;;;;;;6.72;50.35;100765.66;5049016;28;20549;-58
2022/03/23 06:13:08;;;;;;;17.20;10.20;;;;;;;6.75;49.99;100768.38;5056864;28;20199;-58
2022/03/23 06:15:35;;;;;;;12.93;9.20;;;;;;;6.76;49.88;100775.22;5071501;28;20188;-59
2022/03/23 06:18:01;;;;;;;13.03;9.23;;;;;;;6.71;50.58;100768.13;5074695;28;20668;-59
2022/03/23 06:20:28;;;;;;;18.60;11.67;;;;;;;6.69;50.78;100762.94;5078463;28;20222;-59
2022/03/23 06:22:57;;;;;;;16.50;10.57;;;;;;;6.71;50.81;100765.56;5075672;28;20288;-58
2022/03/23 06:25:25;;;;;;;23.33;9.67;;;;;;;6.72;50.83;100764.78;5077688;28;20197;-58
2022/03/23 06:27:52;;;;;;;14.10;9.97;;;;;;;6.80;50.03;100763.50;5069399;28;20194;-57
2022/03/23 06:30:19;;;;;;;11.77;9.10;;;;;;;6.82;49.83;100759.34;5069788;28;20197;-58
2022/03/23 06:32:46;;;;;;;15.67;9.97;;;;;;;6.96;50.66;100768.56;5069429;28;20231;-58
2022/03/23 06:35:16;;;;;;;16.93;9.60;;;;;;;6.91;51.04;100763.25;5072694;28;20581;-59
2022/03/23 06:37:43;;;;;;;18.13;12.40;;;;;;;6.98;50.37;100762.75;5075831;28;20605;-59
2022/03/23 06:40:14;;;;;;;15.90;11.40;;;;;;;7.12;50.44;100769.44;5079058;28;20315;-59
2022/03/23 06:42:41;;;;;;;18.90;10.47;;;;;;;7.17;50.21;100768.81;5079989;28;20231;-58
2022/03/23 06:45:09;;;;;;;13.77;9.83;;;;;;;7.28;49.40;100771.06;5078814;28;20202;-58
2022/03/23 06:47:36;;;;;;;15.33;8.90;;;;;;;7.35;49.98;100765.47;5070060;28;20280;-59
2022/03/23 06:50:03;;;;;;;15.97;9.70;;;;;;;7.41;49.32;100754.66;5069394;28;20203;-59
2022/03/23 06:52:30;;;;;;;15.07;8.87;;;;;;;7.55;48.71;100756.22;5069495;28;20198;-58
2022/03/23 06:54:57;;;;;;;13.63;9.60;;;;;;;7.68;48.37;100756.00;5069357;28;20288;-58
2022/03/23 06:57:25;;;;;;;13.80;9.63;;;;;;;7.74;48.41;100758.84;5069566;28;20191;-59
2022/03/23 06:59:52;;;;;;;17.57;8.97;;;;;;;7.90;47.44;100758.75;5069046;28;20228;-58
2022/03/23 07:02:19;;;;;;;14.37;9.53;;;;;;;7.86;47.14;100767.09;5071281;28;20198;-58
2022/03/23 07:04:46;;;;;;;11.27;8.93;;;;;;;8.00;47.48;100762.59;5072920;28;20198;-59
2022/03/23 07:07:13;;;;;;;13.97;10.37;;;;;;;8.09;46.98;100757.94;5072475;28;20195;-59
2022/03/23 07:09:40;;;;;;;20.50;10.43;;;;;;;8.09;46.50;100750.25;5072704;28;20204;-59
2022/03/23 07:12:10;;;;;;;15.60;9.07;;;;;;;8.16;46.30;100744.59;5073128;28;20207;-58
2022/03/23 07:14:40;;;;;;;13.10;9.87;;;;;;;8.24;47.15;100748.41;5075425;28;20213;-57
2022/03/23 07:17:08;;;;;;;12.07;9.23;;;;;;;8.32;46.90;100747.94;5079668;28;20196;-57
2022/03/23 07:19:35;;;;;;;15.73;10.30;;;;;;;8.42;46.44;100751.81;5081094;28;20649;-57
2022/03/23 07:22:02;;;;;;;15.83;11.03;;;;;;;8.55;46.53;100754.09;5077675;28;20187;-58
2022/03/23 07:24:29;;;;;;;10.87;7.43;;;;;;;8.62;45.59;100756.16;5083742;28;20221;-58
2022/03/23 07:26:56;;;;;;;16.13;8.63;;;;;;;8.63;45.45;100760.44;5082432;28;20239;-57
2022/03/23 07:29:22;;;;;;;15.25;8.45;;;;;;;8.78;45.49;100750.88;5080668;28;20452;-58
2022/03/23 07:31:51;;;;;;;9.80;6.63;;;;;;;8.96;44.83;100752.44;5078990;28;20188;-58
2022/03/23 07:34:19;;;;;;;9.40;7.00;;;;;;;9.00;44.09;100749.22;5080902;28;20194;-58
2022/03/23 07:36:47;;;;;;;11.73;6.07;;;;;;;9.12;43.69;100749.75;5079327;28;20255;-57
2022/03/23 07:39:20;;;;;;;8.20;5.30;;;;;;;9.24;43.32;100745.13;5082992;28;20189;-58
2022/03/23 07:41:50;;;;;;;8.17;5.63;;;;;;;9.40;42.66;100744.91;5077113;28;20578;-58
2022/03/23 07:44:18;;;;;;;7.30;4.73;;;;;;;9.48;41.60;100744.44;5072451;28;20229;-58
2022/03/23 07:46:45;;;;;;;8.10;4.90;;;;;;;9.54;40.90;100737.78;5071973;28;20194;-58
2022/03/23 07:49:14;;;;;;;4.40;3.83;;;;;;;9.60;40.32;100738.91;5071186;28;20206;-58
2022/03/23 07:51:41;;;;;;;7.37;4.33;;;;;;;9.58;39.85;100738.00;5079450;28;20282;-58
2022/03/23 07:54:09;;;;;;;6.60;4.67;;;;;;;9.59;40.55;100721.75;5073997;28;20271;-58
2022/03/23 07:56:36;;;;;;;7.03;4.78;;;;;;;9.75;39.10;100723.25;5076317;28;20432;-58
2022/03/23 07:59:03;;;;;;;6.23;4.20;;;;;;;9.90;39.08;100727.28;5075533;28;20249;-57
2022/03/23 08:01:30;;;;;;;10.33;4.67;;;;;;;9.99;39.12;100734.47;5083715;28;20186;-58
2022/03/23 08:03:59;;;;;;;4.70;3.60;;;;;;;10.07;38.31;100731.38;5073582;28;20304;-58
2022/03/23 08:06:28;;;;;;;7.20;4.03;;;;;;;10.05;37.86;100730.41;5082789;28;20206;-57
2022/03/23 08:08:56;;;;;;;7.47;4.20;;;;;;;10.07;37.39;100718.53;5074024;28;20198;-58
2022/03/23 08:11:23;;;;;;;8.40;4.83;;;;;;;10.14;37.69;100721.34;5079972;28;20198;-58
2022/03/23 08:13:50;;;;;;;8.43;4.43;;;;;;;10.16;36.99;100715.47;5068768;28;20260;-58
2022/03/23 08:16:18;;;;;;;4.77;3.87;;;;;;;10.19;36.84;100717.28;5072487;28;20200;-58
2022/03/23 08:18:45;;;;;;;7.83;4.43;;;;;;;10.25;37.14;100712.34;5080940;28;20186;-58
2022/03/23 08:21:12;;;;;;;9.60;4.97;;;;;;;10.28;36.72;100715.91;5074758;28;20209;-58
2022/03/23 08:23:41;;;;;;;9.37;4.60;;;;;;;10.34;36.79;100697.28;5071684;28;20225;-58
2022/03/23 08:26:10;;;;;;;9.87;5.10;;;;;;;10.50;36.51;100712.41;5071666;28;20200;-58
2022/03/23 08:28:38;;;;;;;7.57;3.60;;;;;;;10.42;36.17;100706.13;5071477;28;20234;-58
2022/03/23 08:31:05;;;;;;;7.97;4.27;;;;;;;10.44;35.95;100717.34;5071305;28;20194;-58
2022/03/23 08:33:34;;;;;;;8.43;4.30;;;;;;;10.43;36.20;100703.63;5071404;28;20199;-58
2022/03/23 08:36:01;;;;;;;7.43;4.40;;;;;;;10.51;35.29;100709.94;5071547;28;20192;-58
2022/03/23 08:38:28;;;;;;;6.63;3.63;;;;;;;10.58;35.62;100698.16;5070870;28;20192;-60
2022/03/23 08:40:56;;;;;;;7.40;3.97;;;;;;;10.66;35.45;100702.75;5071419;28;20302;-58
2022/03/23 08:43:23;;;;;;;6.60;4.13;;;;;;;10.81;35.13;100706.66;5070626;28;20219;-59
2022/03/23 08:45:50;;;;;;;7.67;4.00;;;;;;;10.88;34.34;100699.22;5070993;28;20219;-59
2022/03/23 08:48:18;;;;;;;7.23;4.23;;;;;;;10.96;34.05;100702.91;5071126;28;20192;-59
2022/03/23 08:50:45;;;;;;;8.43;4.00;;;;;;;10.93;33.75;100691.69;5070129;28;20252;-59
2022/03/23 08:53:12;;;;;;;4.60;4.10;;;;;;;11.04;33.79;100706.63;5069832;28;20188;-59
2022/03/23 08:55:39;;;;;;;4.77;3.63;;;;;;;11.05;33.22;100703.22;5069746;28;20191;-60
2022/03/23 08:58:07;;;;;;;6.80;4.03;;;;;;;11.17;33.52;100702.78;5069790;28;20188;-58
2022/03/23 09:00:34;;;;;;;4.47;3.47;;;;;;;11.19;33.07;100707.16;5069312;28;20230;-59
2022/03/23 09:03:02;;;;;;;5.77;3.83;;;;;;;11.26;33.41;100701.34;5068966;28;20574;-58
2022/03/23 09:05:28;;;;;;;5.40;3.67;;;;;;;11.33;33.71;100699.00;5069676;28;20201;-58
2022/03/23 09:07:55;;;;;;;4.90;3.50;;;;;;;11.30;32.95;100699.78;5071004;28;20196;-58
2022/03/23 09:10:23;;;;;;;8.57;4.33;;;;;;;11.21;33.72;100695.19;5070459;28;20203;-58
2022/03/23 09:12:50;;;;;;;6.83;4.47;;;;;;;11.35;33.25;100689.63;5070812;28;20203;-58
2022/03/23 09:15:19;;;;;;;4.87;3.93;;;;;;;11.37;32.56;100688.00;5070661;28;20188;-58
2022/03/23 09:17:46;;;;;;;4.33;3.40;;;;;;;11.42;31.70;100682.16;5070563;28;20192;-58
2022/03/23 09:20:14;;;;;;;6.77;3.80;;;;;;;11.54;31.96;100684.22;5070343;28;20701;-59
2022/03/23 09:22:42;;;;;;;4.57;3.67;;;;;;;11.60;31.87;100679.28;5070403;28;20265;-59
2022/03/23 09:25:11;;;;;;;6.43;4.67;;;;;;;11.47;32.16;100674.56;5069765;28;20215;-59
2022/03/23 09:27:39;;;;;;;7.80;4.57;;;;;;;11.54;32.46;100673.94;5069981;28;20932;-59
2022/03/23 09:30:10;;;;;;;4.20;3.67;;;;;;;11.72;32.31;100674.53;5070113;28;20192;-59
2022/03/23 09:32:39;;;;;;;4.00;3.60;;;;;;;11.72;31.47;100678.00;5070469;28;20199;-59
2022/03/23 09:35:07;;;;;;;4.93;3.67;;;;;;;11.71;32.22;100668.53;5070513;28;20200;-59
2022/03/23 09:37:49;;;;;;;5.03;4.07;;;;;;;11.73;31.67;100672.00;5070409;28;20218;-59
2022/03/23 09:40:24;;;;;;;6.33;3.97;;;;;;;11.80;31.53;100662.78;5069846;28;20195;-59
2022/03/23 09:42:51;;;;;;;6.10;4.17;;;;;;;11.72;32.20;100633.34;5070401;28;20248;-60
2022/03/23 09:48:01;;;;;;;9.87;4.47;;;;;;;12.00;31.25;100673.66;5061219;28;20202;-60
2022/03/23 09:50:30;;;;;;;3.97;3.50;;;;;;;12.01;30.58;100658.25;5069872;28;20195;-59
2022/03/23 09:52:57;;;;;;;6.77;3.97;;;;;;;11.99;30.86;100652.19;5069994;28;20191;-59
2022/03/23 09:55:24;;;;;;;6.90;3.70;;;;;;;12.05;30.64;100656.66;5069692;28;20546;-58
2022/03/23 09:57:54;;;;;;;6.03;3.70;;;;;;;12.00;30.61;100651.38;5069581;28;20417;-58
2022/03/23 10:00:21;;;;;;;7.50;4.33;;;;;;;11.97;30.73;100658.13;5069824;28;20231;-58
2022/03/23 10:03:48;;;;;;;5.33;3.90;;;;;;;12.08;30.19;100656.72;5069962;28;20195;-58
2022/03/23 10:06:52;;;;;;;9.20;4.43;;;;;;;12.10;30.13;100655.94;5070315;28;20261;-59
2022/03/23 10:10:04;;;;;;;6.40;4.23;;;;;;;12.19;29.56;100645.91;5059649;28;20191;-59
2022/03/23 10:13:36;;;;;;;6.07;3.50;;;;;;;12.15;30.02;100651.78;5069839;28;20187;-59
2022/03/23 10:16:38;;;;;;;3.77;3.47;;;;;;;11.90;30.05;100635.56;5069623;28;20206;-59
2022/03/23 10:19:05;;;;;;;5.73;3.83;;;;;;;12.08;30.65;100637.00;5038526;28;20281;-59
2022/03/23 10:21:34;;;;;;;5.80;3.80;;;;;;;12.24;30.23;100630.56;5069861;28;20215;-60
2022/03/23 10:24:35;;;;;;;5.60;3.73;;;;;;;12.37;30.15;100623.22;5069501;28;20219;-59
2022/03/23 10:27:12;;;;;;;6.43;3.57;;;;;;;12.44;29.11;100622.53;5069516;28;20191;-59
2022/03/23 10:29:44;;;;;;;4.73;3.93;;;;;;;12.53;29.18;100619.31;5069364;28;20278;-59
2022/03/23 10:32:12;;;;;;;6.67;3.87;;;;;;;12.57;29.69;100609.97;5069573;28;20732;-59
2022/03/23 10:34:40;;;;;;;6.77;3.73;;;;;;;12.60;29.95;100615.22;5069714;28;20670;-59
2022/03/23 10:37:08;;;;;;;5.00;4.20;;;;;;;12.63;29.64;100598.13;5072859;28;20203;-60
2022/03/23 10:39:36;;;;;;;5.50;3.90;;;;;;;12.73;29.89;100601.78;5073309;28;20191;-59
2022/03/23 10:42:09;;;;;;;7.57;3.77;;;;;;;12.88;28.74;100597.88;5073301;28;20199;-59
2022/03/23 10:44:36;;;;;;;5.50;4.23;;;;;;;12.86;28.46;100585.78;5073147;28;20226;-59
2022/03/23 10:47:04;;;;;;;3.83;3.43;;;;;;;12.73;27.76;100555.38;5073374;28;20768;-59
2022/03/23 10:49:32;;;;;;;7.63;4.10;;;;;;;12.96;27.63;100587.75;5073216;28;20987;-59
2022/03/23 10:52:11;;;;;;;5.00;3.77;;;;;;;13.10;27.95;100572.66;5072998;28;20570;-60
2022/03/23 10:54:39;;;;;;;4.90;3.47;;;;;;;13.23;27.96;100575.53;5073047;28;20199;-59
2022/03/23 10:57:06;;;;;;;5.77;3.60;;;;;;;13.03;28.19;100569.88;5072935;28;20196;-59
2022/03/23 10:59:33;;;;;;;8.80;4.03;;;;;;;12.87;28.59;100570.34;5073150;28;20238;-59
2022/03/23 11:02:02;;;;;;;5.17;3.97;;;;;;;12.97;28.18;100561.13;5073131;28;20234;-60
2022/03/23 11:04:30;;;;;;;5.93;3.23;;;;;;;12.57;27.88;100502.56;5072973;28;20226;-60
2022/03/23 11:06:58;;;;;;;5.30;3.90;;;;;;;12.99;27.40;100554.31;5072907;28;20217;-60
2022/03/23 11:18:07;;;;;;;5.23;3.50;;;;;;;13.44;26.79;100549.31;5072701;28;20198;-58
2022/03/23 11:20:43;;;;;;;5.70;3.80;;;;;;;13.47;26.73;100545.09;5071693;28;20195;-58
2022/03/23 11:23:18;;;;;;;6.60;4.20;;;;;;;13.32;26.30;100541.31;5053059;28;20878;-59
2022/03/23 11:25:45;;;;;;;5.60;3.57;;;;;;;13.53;26.35;100540.06;5080328;28;20525;-59
2022/03/23 11:28:15;;;;;;;3.90;3.30;;;;;;;13.54;26.18;100538.38;5076313;28;20264;-59
2022/03/23 11:30:42;;;;;;;5.50;3.57;;;;;;;13.69;25.82;100522.28;5079778;28;20280;-58
2022/03/23 11:33:10;;;;;;;3.63;3.27;;;;;;;13.76;25.84;100522.44;5074756;28;20198;-60
2022/03/23 11:35:39;;;;;;;4.35;3.30;;;;;;;13.70;25.56;100524.03;5073123;28;20509;-59
2022/03/23 11:38:11;;;;;;;4.20;3.10;;;;;;;13.76;25.74;100519.00;5072045;28;20192;-59
2022/03/23 11:40:39;;;;;;;4.37;3.00;;;;;;;13.93;25.57;100515.00;5075740;28;20201;-59
2022/03/23 11:43:06;;;;;;;4.93;3.57;;;;;;;13.76;25.73;100506.09;5077679;28;20191;-60
2022/03/23 11:45:35;;;;;;;5.73;3.07;;;;;;;13.60;25.80;100507.47;5078453;28;20224;-59
2022/03/23 11:48:10;;;;;;;4.07;3.03;;;;;;;13.64;25.94;100500.66;5070782;28;20200;-59
2022/03/23 11:50:48;;;;;;;4.13;3.70;;;;;;;13.84;25.64;100500.22;5071887;28;20191;-59
2022/03/23 11:53:24;;;;;;;5.37;3.90;;;;;;;14.04;25.97;100493.69;5071836;28;20239;-58